Time;durP1;ratioP1;P1;durP2;ratioP2;P2;SDS_P1;SDS_P2;PMS_P1;PMS_P2;Temp;Humidity;BMP_temperature;BMP_pressure;BME280_temperature;BME280_humidity;BME280_pressure;Samples;Min_cycle;Max_cycle;Signal;HPM_P1;HPM_P2
2023/03/22 00:00:35;;;;;;;8.23;5.57;;;7.60;99.90;;;;;;5008629;28;20588;-70
2023/03/22 00:03:02;;;;;;;6.65;5.03;;;7.70;99.90;;;;;;5028929;28;20047;-69
2023/03/22 00:05:29;;;;;;;6.72;5.10;;;7.70;99.90;;;;;;5027812;28;20063;-69
2023/03/22 00:07:56;;;;;;;8.60;5.57;;;7.80;99.90;;;;;;5051205;28;20332;-69
2023/03/22 00:10:27;;;;;;;10.07;5.10;;;7.80;99.90;;;;;;5052696;28;20059;-70
2023/03/22 00:12:54;;;;;;;6.07;4.13;;;7.70;99.90;;;;;;5045625;28;20134;-70
2023/03/22 00:15:19;;;;;;;5.22;4.20;;;7.50;99.90;;;;;;5050234;28;20037;-70
2023/03/22 00:17:45;;;;;;;5.97;4.05;;;7.20;99.90;;;;;;5047867;28;20033;-70
2023/03/22 00:20:11;;;;;;;7.68;4.28;;;7.20;99.90;;;;;;5054468;28;20033;-70
2023/03/22 00:22:40;;;;;;;6.22;3.92;;;7.20;99.90;;;;;;5052495;28;20089;-70
2023/03/22 00:25:06;;;;;;;5.00;4.00;;;7.10;99.90;;;;;;5054077;28;20098;-68
2023/03/22 00:27:31;;;;;;;4.82;4.05;;;7.10;99.90;;;;;;5054875;28;20090;-70
2023/03/22 00:29:57;;;;;;;5.22;4.20;;;7.00;99.90;;;;;;5049109;28;20127;-69
2023/03/22 00:32:23;;;;;;;5.07;3.78;;;6.90;99.90;;;;;;5046515;28;20127;-69
2023/03/22 00:34:49;;;;;;;4.22;3.58;;;6.90;99.90;;;;;;5054916;28;20515;-69
2023/03/22 00:37:15;;;;;;;6.35;3.67;;;6.90;99.90;;;;;;5048674;28;20040;-70
2023/03/22 00:39:41;;;;;;;3.47;3.17;;;6.90;99.90;;;;;;5058119;28;20048;-69
2023/03/22 00:42:07;;;;;;;4.20;3.67;;;6.70;99.90;;;;;;5036093;28;20966;-69
2023/03/22 00:44:33;;;;;;;5.22;4.07;;;6.70;99.90;;;;;;5032939;28;20505;-69
2023/03/22 00:46:59;;;;;;;5.45;4.10;;;6.70;99.90;;;;;;5027041;28;20093;-69
2023/03/22 00:49:26;;;;;;;4.50;4.07;;;6.70;99.90;;;;;;5045533;28;20032;-69
2023/03/22 00:51:52;;;;;;;6.22;3.65;;;6.80;99.90;;;;;;5036763;28;20032;-68
2023/03/22 00:54:18;;;;;;;7.40;4.13;;;6.90;99.90;;;;;;5048744;28;20029;-69
2023/03/22 00:56:44;;;;;;;9.18;5.97;;;7.00;99.90;;;;;;5054383;28;20678;-69
2023/03/22 00:59:13;;;;;;;7.85;5.70;;;6.90;99.90;;;;;;5046798;28;20060;-69
2023/03/22 01:01:39;;;;;;;6.22;4.72;;;7.10;99.90;;;;;;5052405;28;20039;-69
2023/03/22 01:04:05;;;;;;;5.97;4.72;;;7.20;99.90;;;;;;5041306;28;20539;-68
2023/03/22 01:06:32;;;;;;;8.10;5.65;;;7.20;99.90;;;;;;5043789;28;20082;-69
2023/03/22 01:08:58;;;;;;;4.63;3.85;;;7.00;99.90;;;;;;5056853;28;20036;-69
2023/03/22 01:11:25;;;;;;;3.65;3.20;;;7.00;99.90;;;;;;5041847;28;20043;-69
2023/03/22 01:13:50;;;;;;;4.10;2.83;;;6.80;99.90;;;;;;5055771;28;20065;-68
2023/03/22 01:16:17;;;;;;;5.55;3.40;;;6.60;99.90;;;;;;5049794;28;20064;-69
2023/03/22 01:18:43;;;;;;;4.95;3.53;;;6.30;99.90;;;;;;5055091;28;20110;-69
2023/03/22 01:21:08;;;;;;;4.32;3.45;;;6.10;99.90;;;;;;5054928;28;20529;-67
2023/03/22 01:23:35;;;;;;;6.60;4.22;;;6.30;99.90;;;;;;5052664;28;21352;-68
2023/03/22 01:26:00;;;;;;;5.07;4.07;;;6.50;99.90;;;;;;5056536;28;20087;-68
2023/03/22 01:28:27;;;;;;;4.10;3.70;;;6.60;99.90;;;;;;5055019;28;20029;-69
2023/03/22 01:30:53;;;;;;;4.47;3.58;;;6.80;99.90;;;;;;5045363;28;20189;-68
2023/03/22 01:33:19;;;;;;;4.60;3.45;;;6.70;99.90;;;;;;5052508;28;20119;-68
2023/03/22 01:35:45;;;;;;;7.05;4.50;;;6.70;99.90;;;;;;5035958;28;20040;-69
2023/03/22 01:38:11;;;;;;;11.48;7.05;;;6.70;99.90;;;;;;5053441;28;20157;-68
2023/03/22 01:40:37;;;;;;;14.43;9.07;;;6.90;99.90;;;;;;5047767;28;20034;-69
2023/03/22 01:43:05;;;;;;;4.63;3.83;;;7.00;99.90;;;;;;5057194;28;20878;-68
2023/03/22 01:45:49;;;;;;;4.53;3.58;;;7.10;99.90;;;;;;5049542;28;20287;-69
2023/03/22 01:48:34;;;;;;;8.25;4.68;;;6.80;99.90;;;;;;5051431;28;20446;-68
2023/03/22 01:51:12;;;;;;;7.78;4.32;;;6.50;99.90;;;;;;5051220;28;20583;-69
2023/03/22 01:53:48;;;;;;;7.25;5.20;;;6.50;99.90;;;;;;5053301;28;20032;-70
2023/03/22 01:56:15;;;;;;;7.55;5.40;;;6.70;99.90;;;;;;5053859;28;20062;-71
2023/03/22 01:58:41;;;;;;;6.47;4.93;;;6.90;99.90;;;;;;5056612;28;20033;-72
2023/03/22 02:01:09;;;;;;;6.22;4.60;;;7.00;99.90;;;;;;5053373;28;20047;-70
2023/03/22 02:03:35;;;;;;;8.00;5.72;;;7.10;99.90;;;;;;5055248;28;20033;-70
2023/03/22 02:06:01;;;;;;;5.72;4.93;;;7.20;99.90;;;;;;5056593;28;20106;-70
2023/03/22 02:08:27;;;;;;;8.77;5.55;;;7.40;99.90;;;;;;5057612;28;20564;-70
2023/03/22 02:10:53;;;;;;;8.60;5.93;;;7.50;99.90;;;;;;5046946;28;20060;-69
2023/03/22 02:13:46;;;;;;;7.93;5.80;;;7.70;99.90;;;;;;5055389;28;20642;-69
2023/03/22 02:16:48;;;;;;;7.00;5.07;;;7.70;99.90;;;;;;5047042;28;20045;-69
2023/03/22 02:19:50;;;;;;;7.65;5.25;;;7.80;99.90;;;;;;5050154;28;20036;-70
2023/03/22 02:22:37;;;;;;;6.78;5.40;;;7.80;99.90;;;;;;5045539;28;20075;-70
2023/03/22 02:25:38;;;;;;;7.43;5.40;;;7.70;99.90;;;;;;5045644;28;20053;-69
2023/03/22 02:28:23;;;;;;;6.53;4.72;;;7.70;99.90;;;;;;5049759;28;20133;-69
2023/03/22 02:31:21;;;;;;;6.25;5.28;;;7.90;99.90;;;;;;5045247;28;20032;-69
2023/03/22 02:33:56;;;;;;;6.85;5.25;;;8.00;99.90;;;;;;5030984;28;20033;-69
2023/03/22 02:36:29;;;;;;;7.53;5.43;;;7.80;99.90;;;;;;5025816;28;20091;-71
2023/03/22 02:39:06;;;;;;;7.15;5.30;;;7.70;99.90;;;;;;5050241;28;20037;-71
2023/03/22 02:42:05;;;;;;;7.22;5.55;;;7.90;99.90;;;;;;5042052;28;20162;-69
2023/03/22 02:44:51;;;;;;;7.13;5.00;;;7.90;99.90;;;;;;5046617;28;20111;-70
2023/03/22 02:47:37;;;;;;;7.32;5.97;;;7.70;99.90;;;;;;5041683;28;20057;-70
2023/03/22 02:50:27;;;;;;;6.05;5.43;;;7.60;99.90;;;;;;5044488;28;20040;-70
2023/03/22 02:53:00;;;;;;;6.78;5.65;;;7.70;99.90;;;;;;5038342;28;20029;-69
2023/03/22 02:55:31;;;;;;;8.80;5.78;;;7.80;99.90;;;;;;5043477;28;20033;-71
2023/03/22 02:58:01;;;;;;;6.20;5.15;;;7.90;99.90;;;;;;5048629;28;20028;-71
2023/03/22 03:00:27;;;;;;;6.53;5.55;;;7.90;99.90;;;;;;5042961;28;20134;-71
2023/03/22 03:02:58;;;;;;;10.35;5.97;;;8.00;99.90;;;;;;5050049;28;20457;-67
2023/03/22 03:05:27;;;;;;;5.63;5.07;;;8.20;99.90;;;;;;5047496;28;20052;-69
2023/03/22 03:07:59;;;;;;;7.47;5.45;;;8.20;99.90;;;;;;5054660;28;20075;-69
2023/03/22 03:10:25;;;;;;;6.32;5.20;;;8.30;99.90;;;;;;5051766;28;20062;-69
2023/03/22 03:12:51;;;;;;;6.18;5.18;;;8.30;99.90;;;;;;5051679;28;20021;-70
2023/03/22 03:15:22;;;;;;;7.40;5.72;;;8.30;99.90;;;;;;5036299;28;20836;-70
2023/03/22 03:18:19;;;;;;;9.43;6.95;;;8.40;99.90;;;;;;5051291;28;20034;-67
2023/03/22 03:21:03;;;;;;;19.80;13.07;;;8.50;99.90;;;;;;5050127;28;20122;-67
2023/03/22 03:23:50;;;;;;;17.05;12.05;;;8.60;99.90;;;;;;5047071;28;20336;-67
2023/03/22 03:26:26;;;;;;;19.25;13.98;;;8.70;99.90;;;;;;5049959;28;20045;-67
2023/03/22 03:29:15;;;;;;;12.88;9.93;;;8.80;99.90;;;;;;5051460;28;20139;-66
2023/03/22 03:31:48;;;;;;;11.73;9.63;;;8.90;99.90;;;;;;5047358;28;20051;-67
2023/03/22 03:34:19;;;;;;;9.88;7.72;;;9.00;99.90;;;;;;5042678;28;20044;-67
2023/03/22 03:36:53;;;;;;;12.88;9.82;;;9.00;99.90;;;;;;5048532;28;20033;-67
2023/03/22 03:39:20;;;;;;;8.32;7.15;;;9.20;99.90;;;;;;5045421;28;20040;-67
2023/03/22 03:41:48;;;;;;;8.40;6.20;;;9.20;99.90;;;;;;5048855;28;20511;-67
2023/03/22 03:44:16;;;;;;;6.70;5.90;;;9.40;99.90;;;;;;5053095;28;20059;-67
2023/03/22 03:46:44;;;;;;;7.40;5.93;;;9.40;99.90;;;;;;5047205;28;20040;-67
2023/03/22 03:49:12;;;;;;;8.45;6.00;;;9.50;99.90;;;;;;5043412;28;20039;-67
2023/03/22 03:51:52;;;;;;;22.45;15.60;;;9.50;99.90;;;;;;5049492;28;20029;-67
2023/03/22 03:54:19;;;;;;;151.13;94.63;;;9.50;99.90;;;;;;5050917;28;20071;-67
2023/03/22 03:56:46;;;;;;;32.22;21.75;;;9.30;99.90;;;;;;5049628;28;20055;-70
2023/03/22 03:59:14;;;;;;;12.25;9.50;;;8.90;99.90;;;;;;5054705;28;20592;-67
2023/03/22 04:01:48;;;;;;;12.20;9.65;;;8.70;99.90;;;;;;5055333;28;20037;-67
2023/03/22 04:04:15;;;;;;;14.98;11.05;;;8.50;99.90;;;;;;5056266;28;20060;-66
2023/03/22 04:06:41;;;;;;;10.52;8.00;;;8.50;99.90;;;;;;5055297;28;20481;-67
2023/03/22 04:09:07;;;;;;;14.32;11.13;;;8.50;99.90;;;;;;5051721;28;20067;-67
2023/03/22 04:11:33;;;;;;;9.65;6.75;;;8.60;99.90;;;;;;5053942;28;20036;-67
2023/03/22 04:13:58;;;;;;;7.63;6.50;;;8.80;99.90;;;;;;5056932;28;20132;-67
2023/03/22 04:16:24;;;;;;;12.10;9.48;;;8.90;99.90;;;;;;5054838;28;20599;-67
2023/03/22 04:18:50;;;;;;;11.35;8.50;;;8.90;99.90;;;;;;5050111;28;20083;-67
2023/03/22 04:21:16;;;;;;;9.57;7.85;;;9.00;99.90;;;;;;5057083;28;20478;-67
2023/03/22 04:23:45;;;;;;;19.27;12.98;;;8.90;99.90;;;;;;5061203;28;20104;-67
2023/03/22 04:26:11;;;;;;;23.25;14.48;;;8.90;99.90;;;;;;5050129;28;20805;-67
2023/03/22 04:28:37;;;;;;;14.27;11.05;;;9.00;99.90;;;;;;5047638;28;20120;-67
2023/03/22 04:31:02;;;;;;;15.43;11.75;;;9.00;99.90;;;;;;5046296;28;21080;-67
2023/03/22 04:33:31;;;;;;;13.77;8.65;;;8.90;99.90;;;;;;5036642;28;20037;-67
2023/03/22 04:35:58;;;;;;;27.38;19.63;;;8.80;99.90;;;;;;5050956;28;20017;-67
2023/03/22 04:38:24;;;;;;;27.75;19.58;;;8.70;99.90;;;;;;5050911;28;20196;-67
2023/03/22 04:40:50;;;;;;;30.55;20.17;;;8.70;99.90;;;;;;5058388;28;20036;-67
2023/03/22 04:43:17;;;;;;;26.25;17.77;;;8.70;99.90;;;;;;5050406;28;20082;-67
2023/03/22 04:45:45;;;;;;;25.92;16.80;;;8.70;99.90;;;;;;5040147;28;20509;-67
2023/03/22 04:48:10;;;;;;;62.10;39.72;;;8.70;99.90;;;;;;5057970;28;20029;-67
2023/03/22 04:50:38;;;;;;;35.22;24.10;;;8.60;99.90;;;;;;5038378;28;20050;-66
2023/03/22 04:53:05;;;;;;;12.73;9.95;;;8.40;99.90;;;;;;5035997;28;20055;-67
2023/03/22 04:55:33;;;;;;;10.23;7.15;;;8.20;99.90;;;;;;5055196;28;20054;-67
2023/03/22 04:57:58;;;;;;;13.52;10.57;;;8.10;99.90;;;;;;5051645;28;20037;-67
2023/03/22 05:00:25;;;;;;;15.38;10.60;;;8.00;99.90;;;;;;5049879;28;20409;-66
2023/03/22 05:02:50;;;;;;;11.90;9.30;;;8.00;99.90;;;;;;5047217;28;20044;-66
2023/03/22 05:05:16;;;;;;;14.05;10.02;;;7.90;99.90;;;;;;5048523;28;20515;-67
2023/03/22 05:07:42;;;;;;;13.50;11.30;;;8.00;99.90;;;;;;5054634;28;20043;-67
2023/03/22 05:10:08;;;;;;;16.23;10.82;;;8.10;99.90;;;;;;5044501;28;20040;-66
2023/03/22 05:12:33;;;;;;;16.50;11.32;;;8.10;99.90;;;;;;5045110;28;20033;-67
2023/03/22 05:15:02;;;;;;;18.10;12.70;;;8.20;99.90;;;;;;5051272;28;20040;-66
2023/03/22 05:17:28;;;;;;;30.27;22.88;;;8.40;99.90;;;;;;5053731;28;20689;-67
2023/03/22 05:19:53;;;;;;;61.67;39.20;;;8.40;99.90;;;;;;5051775;28;20052;-66
2023/03/22 05:22:21;;;;;;;78.80;45.42;;;8.30;99.90;;;;;;5036604;28;20111;-68
2023/03/22 05:24:47;;;;;;;65.05;40.45;;;8.20;99.90;;;;;;5048546;28;20040;-68
2023/03/22 05:27:13;;;;;;;55.63;33.90;;;8.20;99.90;;;;;;5056168;28;20059;-67
2023/03/22 05:29:43;;;;;;;47.75;31.02;;;8.40;99.90;;;;;;5046380;28;20032;-67
2023/03/22 05:32:10;;;;;;;25.08;17.65;;;8.40;99.90;;;;;;5050226;28;20448;-66
2023/03/22 05:34:36;;;;;;;30.40;17.48;;;8.50;99.90;;;;;;5054723;28;20037;-66
2023/03/22 05:37:02;;;;;;;20.05;14.60;;;8.70;99.90;;;;;;5047558;28;20036;-67
2023/03/22 05:39:28;;;;;;;19.17;15.63;;;8.60;99.90;;;;;;5050220;28;20463;-67
2023/03/22 05:41:54;;;;;;;13.52;10.88;;;8.50;99.90;;;;;;5048116;28;20052;-67
2023/03/22 05:44:20;;;;;;;9.70;7.63;;;8.40;99.90;;;;;;5050134;28;20040;-66
2023/03/22 05:46:45;;;;;;;7.80;6.53;;;8.30;99.90;;;;;;5047273;28;20063;-67
2023/03/22 05:49:11;;;;;;;12.57;9.40;;;8.20;99.90;;;;;;5052057;28;20737;-66
2023/03/22 05:51:40;;;;;;;11.38;8.07;;;8.20;99.90;;;;;;5051006;28;20457;-66
2023/03/22 05:54:07;;;;;;;9.95;8.02;;;8.20;99.90;;;;;;5053121;28;20047;-66
2023/03/22 05:56:34;;;;;;;11.13;8.73;;;8.20;99.90;;;;;;5049595;28;20504;-66
2023/03/22 05:59:00;;;;;;;14.73;9.05;;;8.30;99.90;;;;;;5054568;28;20037;-66
2023/03/22 06:01:26;;;;;;;30.60;11.50;;;8.40;99.90;;;;;;5042886;28;20099;-66
2023/03/22 06:03:51;;;;;;;22.42;13.00;;;8.50;99.90;;;;;;5052511;28;20066;-66
2023/03/22 06:06:17;;;;;;;16.67;10.40;;;8.70;99.90;;;;;;5040038;28;20268;-66
2023/03/22 06:08:43;;;;;;;16.85;12.13;;;8.90;99.90;;;;;;5041198;28;20055;-69
2023/03/22 06:11:09;;;;;;;21.98;13.93;;;9.20;99.90;;;;;;5052370;28;20180;-70
2023/03/22 06:13:36;;;;;;;14.35;10.00;;;9.40;99.90;;;;;;5051379;28;20524;-70
2023/03/22 06:16:03;;;;;;;12.85;8.88;;;9.60;99.90;;;;;;5044464;28;20068;-70
2023/03/22 06:18:29;;;;;;;10.75;8.00;;;9.70;99.90;;;;;;5052182;28;20044;-71
2023/03/22 06:20:55;;;;;;;13.30;8.73;;;9.90;99.90;;;;;;5053595;28;20417;-72
2023/03/22 06:23:21;;;;;;;10.48;7.60;;;10.10;99.90;;;;;;5053900;28;20384;-70
2023/03/22 06:25:47;;;;;;;8.38;6.35;;;10.30;99.90;;;;;;5057521;28;20064;-71
2023/03/22 06:28:13;;;;;;;8.18;6.13;;;10.60;99.90;;;;;;5056412;28;20283;-71
2023/03/22 06:30:39;;;;;;;8.20;6.88;;;10.80;99.90;;;;;;5053695;28;21177;-71
2023/03/22 06:33:05;;;;;;;6.72;6.03;;;11.00;99.90;;;;;;5054392;28;20044;-69
2023/03/22 06:35:34;;;;;;;10.18;6.13;;;11.10;99.90;;;;;;5057282;28;20444;-71
2023/03/22 06:38:00;;;;;;;7.38;6.18;;;11.30;99.90;;;;;;5056511;28;20084;-69
2023/03/22 06:40:26;;;;;;;6.40;5.75;;;11.50;99.90;;;;;;5052165;28;20036;-69
2023/03/22 06:42:53;;;;;;;7.45;6.38;;;11.60;99.90;;;;;;5051257;28;20024;-69
2023/03/22 06:45:22;;;;;;;8.98;6.82;;;11.60;99.90;;;;;;5056523;28;20726;-69
2023/03/22 06:47:49;;;;;;;7.50;6.55;;;11.60;99.90;;;;;;5053008;28;20511;-65
2023/03/22 06:50:14;;;;;;;7.40;6.63;;;11.70;99.90;;;;;;5053062;28;20673;-67
2023/03/22 06:52:40;;;;;;;7.25;6.53;;;11.70;99.90;;;;;;5052932;28;20032;-69
2023/03/22 06:55:06;;;;;;;9.20;6.72;;;11.70;99.90;;;;;;5058037;28;20033;-69
2023/03/22 06:57:32;;;;;;;7.13;6.43;;;11.70;99.90;;;;;;5056219;28;20593;-69
2023/03/22 06:59:57;;;;;;;8.02;6.05;;;11.70;99.90;;;;;;5055346;28;20048;-69
2023/03/22 07:02:24;;;;;;;8.55;6.32;;;11.70;99.90;;;;;;5054172;28;20245;-69
2023/03/22 07:04:49;;;;;;;7.72;6.07;;;11.80;99.90;;;;;;5052638;28;20713;-69
2023/03/22 07:07:15;;;;;;;7.90;6.53;;;11.90;99.90;;;;;;5055336;28;20052;-69
2023/03/22 07:09:40;;;;;;;6.88;6.03;;;12.00;99.90;;;;;;5052417;28;22059;-69
2023/03/22 07:12:06;;;;;;;5.45;4.63;;;12.10;99.90;;;;;;5055121;28;20047;-69
2023/03/22 07:14:32;;;;;;;4.70;4.28;;;12.20;99.90;;;;;;5056439;28;20047;-69
2023/03/22 07:16:58;;;;;;;4.88;4.25;;;12.20;99.90;;;;;;5055761;28;20456;-68
2023/03/22 07:19:24;;;;;;;4.55;4.10;;;12.30;99.90;;;;;;5053451;28;20875;-69
2023/03/22 07:21:50;;;;;;;4.72;4.15;;;12.40;99.90;;;;;;5054328;28;20056;-69
2023/03/22 07:24:15;;;;;;;6.88;4.82;;;12.40;99.90;;;;;;5055066;28;20115;-69
2023/03/22 07:26:41;;;;;;;6.70;5.88;;;12.50;99.90;;;;;;5054959;28;20040;-69
2023/03/22 07:29:07;;;;;;;7.15;5.85;;;12.60;99.90;;;;;;5019441;28;20066;-69
2023/03/22 07:31:35;;;;;;;6.35;5.75;;;12.60;99.90;;;;;;5040979;28;20666;-70
2023/03/22 07:34:02;;;;;;;7.75;5.70;;;12.70;99.90;;;;;;5054261;28;20040;-70
2023/03/22 07:36:29;;;;;;;5.38;4.50;;;12.80;99.90;;;;;;5050602;28;20175;-69
2023/03/22 07:38:54;;;;;;;6.43;5.78;;;12.80;99.90;;;;;;5052486;28;20099;-69
2023/03/22 07:41:22;;;;;;;6.40;5.68;;;12.80;99.90;;;;;;5055676;28;20063;-69
2023/03/22 07:43:48;;;;;;;6.43;5.25;;;12.90;99.90;;;;;;5045076;28;20127;-69
2023/03/22 07:46:14;;;;;;;5.10;4.13;;;13.00;99.90;;;;;;5051248;28;20064;-69
2023/03/22 07:48:40;;;;;;;3.88;3.47;;;13.00;99.90;;;;;;5048371;28;20045;-69
2023/03/22 07:51:06;;;;;;;4.75;3.08;;;13.10;99.90;;;;;;5052700;28;20045;-69
2023/03/22 07:53:32;;;;;;;5.07;3.30;;;13.20;99.90;;;;;;5045226;28;20036;-69
2023/03/22 07:55:57;;;;;;;4.47;3.45;;;13.30;99.90;;;;;;5037608;28;20036;-69
2023/03/22 07:58:23;;;;;;;4.25;3.60;;;13.30;99.90;;;;;;5047173;28;20120;-69
2023/03/22 08:00:49;;;;;;;4.70;3.13;;;13.30;99.90;;;;;;5049743;28;20068;-69
2023/03/22 08:03:14;;;;;;;5.10;3.53;;;13.40;99.90;;;;;;5052805;28;20040;-69
2023/03/22 08:05:41;;;;;;;4.63;3.90;;;13.50;99.90;;;;;;5052904;28;20923;-69
2023/03/22 08:08:08;;;;;;;4.10;3.70;;;13.50;99.90;;;;;;5056877;28;20045;-65
2023/03/22 08:47:04;;;;;;;3.30;3.00;;;13.70;99.90;;;;;;5249120;22;22324;-66
2023/03/22 08:49:30;;;;;;;4.30;3.50;;;13.80;99.90;;;;;;5029626;28;20057;-66
2023/03/22 08:51:56;;;;;;;4.35;3.90;;;13.70;99.90;;;;;;5044385;28;20033;-66
2023/03/22 08:54:22;;;;;;;3.85;3.55;;;13.70;99.90;;;;;;5056355;28;20031;-66
2023/03/22 08:59:13;;;;;;;6.82;4.10;;;13.80;99.90;;;;;;5051872;28;20048;-68
2023/03/22 09:01:39;;;;;;;4.72;3.92;;;13.80;99.90;;;;;;5051467;28;20522;-67
2023/03/22 09:04:04;;;;;;;4.45;3.92;;;13.90;99.90;;;;;;5041566;28;20032;-68
2023/03/22 09:06:31;;;;;;;8.10;4.30;;;13.80;99.90;;;;;;5063610;28;21477;-68
2023/03/22 09:08:56;;;;;;;4.00;3.60;;;13.90;99.90;;;;;;5055962;28;20305;-68
2023/03/22 09:11:22;;;;;;;5.43;3.85;;;13.90;99.90;;;;;;5062257;28;20154;-68
2023/03/22 09:13:49;;;;;;;4.88;4.20;;;13.90;99.90;;;;;;5055478;28;20680;-68
2023/03/22 09:16:16;;;;;;;4.53;3.92;;;13.90;99.90;;;;;;5061519;28;20032;-68
2023/03/22 09:18:42;;;;;;;5.10;4.30;;;13.90;99.90;;;;;;5057032;28;20029;-68
2023/03/22 09:21:10;;;;;;;4.72;4.22;;;13.90;99.90;;;;;;5056145;28;20194;-68
2023/03/22 09:23:37;;;;;;;4.90;4.38;;;14.00;99.90;;;;;;5051619;28;20033;-67
2023/03/22 09:26:05;;;;;;;5.65;4.10;;;14.10;99.90;;;;;;5056174;28;20135;-67
2023/03/22 09:28:32;;;;;;;4.45;4.05;;;14.10;99.90;;;;;;5051654;28;20056;-67
2023/03/22 09:31:07;;;;;;;7.18;4.05;;;14.20;99.90;;;;;;5052685;28;20036;-67
2023/03/22 09:33:34;;;;;;;11.75;5.68;;;14.20;99.90;;;;;;5059553;28;20128;-68
2023/03/22 09:36:00;;;;;;;10.60;6.38;;;14.30;99.90;;;;;;5058660;28;20032;-68
2023/03/22 09:38:26;;;;;;;6.72;4.30;;;14.40;99.90;;;;;;5052148;28;20044;-67
2023/03/22 09:41:12;;;;;;;5.32;4.20;;;14.40;99.90;;;;;;5047505;28;20036;-68
2023/03/22 09:43:49;;;;;;;5.40;4.07;;;14.50;99.90;;;;;;5059262;28;20028;-68
2023/03/22 09:46:40;;;;;;;4.25;3.50;;;14.50;99.90;;;;;;5051599;28;20052;-67
2023/03/22 09:49:12;;;;;;;10.35;3.88;;;14.60;99.90;;;;;;5044047;28;20055;-68
2023/03/22 09:51:47;;;;;;;4.63;3.45;;;14.60;99.90;;;;;;5029644;28;20682;-68
2023/03/22 09:54:18;;;;;;;4.00;3.60;;;14.60;99.90;;;;;;5043188;28;20048;-67
2023/03/22 09:56:57;;;;;;;6.10;3.87;;;14.50;99.90;;;;;;5031950;28;20499;-68
2023/03/22 10:00:13;;;;;;;4.55;3.40;;;14.50;99.90;;;;;;5044653;28;20171;-67
2023/03/22 10:02:45;;;;;;;8.88;3.67;;;14.50;99.90;;;;;;5014919;28;20577;-68
2023/03/22 10:05:48;;;;;;;7.22;4.00;;;14.50;99.90;;;;;;5043492;28;20175;-68
2023/03/22 10:08:22;;;;;;;6.05;3.47;;;14.50;99.90;;;;;;5046181;28;20128;-68
2023/03/22 10:10:50;;;;;;;3.75;3.45;;;14.50;99.90;;;;;;5041828;28;20109;-68
2023/03/22 10:13:38;;;;;;;3.47;3.17;;;14.50;99.90;;;;;;5043422;28;20033;-66
2023/03/22 10:16:10;;;;;;;5.18;3.83;;;14.50;99.90;;;;;;5042323;28;20065;-66
2023/03/22 10:18:59;;;;;;;;;;;14.50;99.90;;;;;;5045381;28;20029;-67
2023/03/22 10:21:25;;;;;;;4.07;3.53;;;14.50;99.90;;;;;;5045257;28;20610;-65
2023/03/22 10:24:14;;;;;;;4.45;3.88;;;14.60;99.90;;;;;;5044405;28;20076;-65
2023/03/22 10:26:43;;;;;;;3.90;3.47;;;14.60;99.90;;;;;;5040750;28;20436;-64
2023/03/22 10:29:18;;;;;;;3.55;3.15;;;14.60;99.90;;;;;;5044699;28;20040;-65
2023/03/22 10:31:44;;;;;;;6.32;3.95;;;14.60;99.90;;;;;;5041601;28;20779;-65
2023/03/22 10:34:26;;;;;;;4.57;4.10;;;14.60;99.90;;;;;;5043816;28;20062;-65
2023/03/22 10:36:54;;;;;;;5.10;3.58;;;14.60;99.90;;;;;;5035851;28;20518;-65
2023/03/22 10:39:30;;;;;;;3.50;3.20;;;14.60;99.90;;;;;;5033622;28;20045;-65
2023/03/22 10:42:00;;;;;;;4.88;3.70;;;14.60;99.90;;;;;;5038829;28;20500;-65
2023/03/22 10:44:27;;;;;;;4.82;4.13;;;14.60;99.90;;;;;;5039070;28;20041;-65
2023/03/22 10:46:55;;;;;;;3.72;3.42;;;14.60;99.90;;;;;;5038011;28;20037;-65
2023/03/22 10:49:43;;;;;;;3.38;3.08;;;14.60;99.90;;;;;;5040525;28;20460;-64
2023/03/22 10:52:39;;;;;;;3.78;3.30;;;14.70;99.90;;;;;;5036701;28;20522;-64
2023/03/22 10:55:12;;;;;;;3.95;3.55;;;14.70;99.90;;;;;;5038966;28;20064;-65
2023/03/22 10:57:38;;;;;;;;;;;14.80;99.90;;;;;;5020841;28;20783;-65
2023/03/22 11:00:11;;;;;;;4.47;3.33;;;14.80;99.90;;;;;;5041232;28;19921;-64
2023/03/22 11:02:50;;;;;;;5.60;3.45;;;14.80;99.90;;;;;;5036159;28;20094;-64
2023/03/22 11:05:24;;;;;;;3.58;3.28;;;14.70;99.90;;;;;;5033755;28;20040;-65
2023/03/22 11:07:50;;;;;;;5.65;3.50;;;14.70;99.90;;;;;;5025857;28;20051;-65
2023/03/22 11:10:31;;;;;;;6.88;4.85;;;14.80;99.90;;;;;;5033458;28;20044;-65
2023/03/22 11:13:07;;;;;;;4.83;2.97;;;14.80;99.90;;;;;;5033775;28;20033;-65
2023/03/22 11:15:37;;;;;;;3.53;3.22;;;14.90;99.90;;;;;;5035166;28;20458;-65
2023/03/22 11:18:11;;;;;;;4.82;3.45;;;14.90;99.90;;;;;;5030276;28;20567;-65
2023/03/22 11:20:40;;;;;;;5.18;3.50;;;15.00;99.90;;;;;;5010361;28;20041;-64
2023/03/22 11:23:10;;;;;;;4.00;3.60;;;15.00;99.90;;;;;;5030850;28;20037;-65
2023/03/22 11:25:42;;;;;;;3.72;3.33;;;15.10;99.90;;;;;;5031281;28;20041;-65
2023/03/22 11:28:21;;;;;;;4.38;3.40;;;15.10;99.90;;;;;;5029354;28;20036;-65
2023/03/22 11:30:59;;;;;;;3.30;3.00;;;15.10;99.90;;;;;;5036102;28;20052;-65
2023/03/22 11:33:24;;;;;;;4.00;3.55;;;15.20;99.90;;;;;;5038582;28;20055;-67
2023/03/22 11:35:58;;;;;;;6.95;5.63;;;15.10;99.90;;;;;;5040115;28;20037;-66
2023/03/22 11:38:39;;;;;;;19.33;15.30;;;15.20;99.90;;;;;;5035217;28;20547;-65
2023/03/22 11:41:40;;;;;;;11.65;10.45;;;15.20;99.90;;;;;;5041514;28;20028;-65
2023/03/22 11:44:17;;;;;;;4.10;3.40;;;15.30;99.90;;;;;;5025936;28;20516;-65
2023/03/22 11:46:59;;;;;;;3.45;3.10;;;15.30;99.90;;;;;;5043711;28;20048;-65
2023/03/22 11:49:59;;;;;;;5.82;3.65;;;15.40;99.90;;;;;;5042154;28;20644;-65
2023/03/22 11:52:26;;;;;;;3.42;2.63;;;15.40;99.90;;;;;;4994215;28;20045;-65
2023/03/22 11:54:53;;;;;;;5.07;3.60;;;15.40;99.00;;;;;;5043109;28;20060;-64
2023/03/22 11:57:29;;;;;;;3.67;3.05;;;15.40;99.50;;;;;;5042569;28;20033;-65
2023/03/22 12:00:05;;;;;;;5.13;2.85;;;15.50;98.70;;;;;;5042675;28;20051;-65
2023/03/22 12:02:40;;;;;;;3.25;2.67;;;15.50;97.80;;;;;;5031043;28;20040;-65
2023/03/22 12:05:14;;;;;;;3.20;2.90;;;15.60;97.50;;;;;;5036206;28;20046;-65
2023/03/22 12:07:40;;;;;;;2.53;2.30;;;15.50;96.80;;;;;;5038560;28;20037;-65
2023/03/22 12:10:18;;;;;;;3.55;3.20;;;15.60;97.50;;;;;;5043117;28;20368;-65
2023/03/22 12:12:57;;;;;;;5.30;2.50;;;15.60;97.30;;;;;;5015250;28;20591;-65
2023/03/22 12:15:27;;;;;;;3.28;2.35;;;15.70;96.70;;;;;;5043791;28;20040;-65
2023/03/22 12:18:01;;;;;;;2.30;2.10;;;15.70;96.60;;;;;;5047904;28;20029;-64
2023/03/22 12:20:46;;;;;;;2.33;2.13;;;15.80;96.90;;;;;;5044668;28;20036;-65
2023/03/22 12:23:24;;;;;;;2.55;1.98;;;15.90;96.80;;;;;;5047425;28;20117;-65
2023/03/22 12:25:56;;;;;;;3.15;1.90;;;15.80;95.40;;;;;;5042861;28;20052;-65
2023/03/22 12:28:49;;;;;;;2.25;1.70;;;15.80;95.30;;;;;;5033589;28;20036;-65
2023/03/22 12:31:51;;;;;;;3.45;2.13;;;15.70;94.90;;;;;;5040924;28;20084;-65
2023/03/22 12:34:32;;;;;;;2.72;2.20;;;15.70;95.30;;;;;;5003870;28;20639;-65
2023/03/22 12:37:00;;;;;;;2.05;1.85;;;15.60;95.00;;;;;;5043674;28;20039;-66
2023/03/22 12:39:36;;;;;;;2.65;2.05;;;15.70;95.10;;;;;;5039760;28;20033;-65
2023/03/22 12:42:24;;;;;;;2.33;2.05;;;15.70;95.60;;;;;;5042758;28;20127;-65
2023/03/22 12:44:57;;;;;;;2.35;2.10;;;15.70;95.60;;;;;;5037378;28;20164;-65
2023/03/22 12:47:29;;;;;;;3.42;2.40;;;15.70;95.60;;;;;;5038643;28;20126;-64
2023/03/22 12:50:23;;;;;;;3.00;2.35;;;15.80;95.30;;;;;;5049640;28;20087;-65
2023/03/22 12:52:53;;;;;;;4.50;2.40;;;15.80;94.50;;;;;;5047193;28;20040;-65
2023/03/22 12:55:27;;;;;;;4.88;2.40;;;15.80;94.50;;;;;;5046664;28;20039;-65
2023/03/22 12:57:54;;;;;;;2.30;1.90;;;15.80;94.50;;;;;;5039760;28;20041;-65
2023/03/22 13:00:43;;;;;;;2.45;2.00;;;15.80;94.40;;;;;;5040109;28;20932;-65
2023/03/22 13:03:16;;;;;;;3.72;2.10;;;15.90;94.90;;;;;;5036097;28;20040;-65
2023/03/22 13:05:44;;;;;;;2.28;1.92;;;15.90;94.50;;;;;;5035331;28;20470;-65
2023/03/22 13:08:09;;;;;;;3.35;1.77;;;15.90;94.70;;;;;;5010686;28;20064;-65
2023/03/22 13:10:37;;;;;;;3.80;2.22;;;15.90;94.10;;;;;;5027607;28;20160;-65
2023/03/22 13:13:21;;;;;;;4.50;2.65;;;16.00;94.10;;;;;;5040985;28;20064;-65
2023/03/22 13:16:12;;;;;;;2.85;2.08;;;16.00;93.30;;;;;;5035622;28;20104;-64
2023/03/22 13:18:41;;;;;;;4.63;3.72;;;16.00;93.20;;;;;;5034972;28;20060;-65
2023/03/22 13:21:16;;;;;;;6.45;2.38;;;16.10;93.20;;;;;;5037105;28;20040;-64
2023/03/22 13:24:00;;;;;;;3.15;1.60;;;16.20;92.60;;;;;;5035864;28;20047;-65
2023/03/22 13:26:31;;;;;;;3.00;2.42;;;16.20;92.30;;;;;;5038742;28;20159;-65
2023/03/22 13:29:00;;;;;;;2.10;1.90;;;16.10;92.00;;;;;;5037048;28;20433;-65
2023/03/22 13:31:40;;;;;;;5.00;4.32;;;16.10;92.20;;;;;;5034607;28;20482;-65
2023/03/22 13:34:14;;;;;;;5.35;3.88;;;16.20;92.10;;;;;;5040340;28;20079;-66
2023/03/22 13:36:48;;;;;;;2.63;2.00;;;16.20;92.20;;;;;;5034045;28;20530;-65
2023/03/22 13:39:15;;;;;;;1.70;1.58;;;16.30;92.10;;;;;;5042703;28;20048;-65
2023/03/22 13:41:44;;;;;;;3.15;2.85;;;16.30;91.60;;;;;;5045470;28;20068;-65
2023/03/22 13:44:27;;;;;;;7.30;3.22;;;16.30;91.80;;;;;;5039167;28;20109;-65
2023/03/22 13:46:58;;;;;;;9.82;3.03;;;16.30;91.70;;;;;;5036609;28;20032;-68